Time;durP1;ratioP1;P1;durP2;ratioP2;P2;SDS_P1;SDS_P2;PMS_P1;PMS_P2;Temp;Humidity;BMP_temperature;BMP_pressure;BME280_temperature;BME280_humidity;BME280_pressure;Samples;Min_cycle;Max_cycle;Signal;HPM_P1;HPM_P2
2021/10/02 00:47:08;;;;;;;10.65;5.72;;;11.50;99.90;;;;;;4942650;28;20074;-84
2021/10/02 00:49:38;;;;;;;5.25;4.50;;;11.50;99.90;;;;;;4926271;28;20523;-84
2021/10/02 00:52:08;;;;;;;6.93;5.43;;;11.50;99.90;;;;;;4924544;28;20459;-84
2021/10/02 00:54:35;;;;;;;6.85;6.13;;;11.50;99.90;;;;;;4926388;28;20046;-84
2021/10/02 00:57:02;;;;;;;8.15;5.40;;;11.50;99.90;;;;;;4924198;28;20542;-84
2021/10/02 00:59:31;;;;;;;7.43;5.63;;;11.50;99.90;;;;;;4940576;28;20051;-84
2021/10/02 01:02:22;;;;;;;12.88;6.47;;;11.50;99.90;;;;;;4942472;28;20097;-87
2021/10/02 01:05:23;;;;;;;8.73;6.32;;;11.50;99.90;;;;;;4926044;28;20034;-87
2021/10/02 01:08:00;;;;;;;7.55;5.70;;;11.60;99.90;;;;;;4940399;28;20070;-87
2021/10/02 01:10:44;;;;;;;7.25;5.15;;;11.50;99.90;;;;;;4923083;28;20046;-87
2021/10/02 01:13:36;;;;;;;11.23;6.80;;;11.50;99.90;;;;;;4940299;28;20043;-87
2021/10/02 01:16:13;;;;;;;9.07;6.35;;;11.40;99.90;;;;;;4940346;28;20066;-88
2021/10/02 01:18:46;;;;;;;6.40;5.65;;;11.50;99.90;;;;;;4940849;28;20054;-87
2021/10/02 01:21:58;;;;;;;10.85;5.53;;;11.50;99.90;;;;;;4941058;28;20063;-87
2021/10/02 01:24:46;;;;;;;9.85;6.30;;;11.50;99.90;;;;;;4935726;28;20047;-87
2021/10/02 01:27:33;;;;;;;8.80;5.13;;;11.50;99.90;;;;;;4941228;28;20078;-88
2021/10/02 01:30:06;;;;;;;8.25;5.28;;;11.50;99.90;;;;;;4939907;28;20480;-87
2021/10/02 01:32:44;;;;;;;11.57;5.95;;;11.50;99.90;;;;;;4944423;28;20058;-87
2021/10/02 01:35:29;;;;;;;6.90;6.13;;;11.40;99.90;;;;;;4935645;28;20059;-86
2021/10/02 01:49:05;;;;;;;9.07;5.60;;;11.40;99.90;;;;;;4938403;28;20046;-87
2021/10/02 01:51:33;;;;;;;7.65;6.75;;;11.40;99.90;;;;;;4941966;28;20543;-88
2021/10/02 01:54:01;;;;;;;9.05;5.50;;;11.40;99.90;;;;;;4923464;28;20055;-87
2021/10/02 01:56:28;;;;;;;6.90;5.53;;;11.40;99.90;;;;;;4941083;28;20058;-87
2021/10/02 01:58:57;;;;;;;8.95;5.22;;;11.40;99.90;;;;;;4925013;28;20055;-87
2021/10/02 02:01:24;;;;;;;6.32;5.57;;;11.50;99.90;;;;;;4921742;28;20813;-87
2021/10/02 02:03:56;;;;;;;6.70;5.43;;;11.50;99.90;;;;;;4941987;28;20496;-87
2021/10/02 02:06:26;;;;;;;12.30;6.95;;;11.50;99.90;;;;;;4921639;28;20161;-87
2021/10/02 02:08:55;;;;;;;6.00;5.40;;;11.40;99.90;;;;;;4942797;28;20826;-87
2021/10/02 02:11:26;;;;;;;7.20;6.22;;;11.40;99.90;;;;;;4939695;28;20368;-88
2021/10/02 02:13:56;;;;;;;7.65;6.28;;;11.40;99.90;;;;;;4941267;28;20064;-88
2021/10/02 02:16:23;;;;;;;6.90;6.03;;;11.40;99.90;;;;;;4940175;28;20173;-87
2021/10/02 02:18:51;;;;;;;9.98;6.50;;;11.40;99.90;;;;;;4941986;28;20057;-87
2021/10/02 02:21:20;;;;;;;8.35;5.93;;;11.40;99.90;;;;;;4939256;28;20121;-87
2021/10/02 02:23:47;;;;;;;5.50;4.90;;;11.40;99.90;;;;;;4940217;28;20517;-88
2021/10/02 02:26:15;;;;;;;11.63;6.72;;;11.40;99.90;;;;;;4939815;28;20055;-86
2021/10/02 02:28:42;;;;;;;7.05;6.35;;;11.40;99.90;;;;;;4939156;28;20117;-88
2021/10/02 02:31:10;;;;;;;10.45;6.93;;;11.40;99.90;;;;;;4939214;28;20508;-88
2021/10/02 02:33:39;;;;;;;11.23;6.65;;;11.40;99.90;;;;;;4940340;28;20449;-87
2021/10/02 02:36:07;;;;;;;9.52;4.95;;;11.30;99.90;;;;;;4904877;28;20071;-88
2021/10/02 02:38:35;;;;;;;8.70;7.90;;;11.30;99.90;;;;;;4939399;28;20050;-88
2021/10/02 02:41:04;;;;;;;7.38;6.28;;;11.30;99.90;;;;;;4940934;28;20057;-86
2021/10/02 02:43:35;;;;;;;9.73;6.55;;;11.30;99.90;;;;;;4929905;28;20567;-88
2021/10/02 02:46:22;;;;;;;19.73;8.10;;;11.30;99.90;;;;;;4923101;28;20117;-87
2021/10/02 02:49:03;;;;;;;6.90;5.72;;;11.30;99.90;;;;;;4923981;28;20054;-88
2021/10/02 02:51:43;;;;;;;9.07;6.43;;;11.20;99.90;;;;;;4937901;28;20062;-87
2021/10/02 02:54:21;;;;;;;9.73;6.30;;;11.30;99.90;;;;;;4944905;28;20051;-87
2021/10/02 02:56:52;;;;;;;10.38;5.78;;;11.30;99.90;;;;;;4943619;28;20558;-88
2021/10/02 02:59:27;;;;;;;9.02;6.00;;;11.30;99.90;;;;;;4943912;28;20307;-88
2021/10/02 03:01:55;;;;;;;8.85;7.00;;;11.20;99.90;;;;;;4926619;28;20050;-87
2021/10/02 03:04:29;;;;;;;9.88;6.65;;;11.20;99.90;;;;;;4945857;28;20051;-87
2021/10/02 03:06:58;;;;;;;10.77;6.60;;;11.20;99.90;;;;;;4943911;28;20062;-88
2021/10/02 03:09:26;;;;;;;7.45;6.70;;;11.20;99.90;;;;;;4944400;28;20124;-88
2021/10/02 03:11:54;;;;;;;8.48;6.82;;;11.20;99.90;;;;;;4941111;28;20055;-88
2021/10/02 03:14:23;;;;;;;8.77;6.05;;;11.20;99.90;;;;;;4944423;28;20137;-88
2021/10/02 03:16:55;;;;;;;8.88;6.95;;;11.10;99.90;;;;;;4942476;28;20129;-88
2021/10/02 03:19:22;;;;;;;9.88;7.32;;;11.10;99.90;;;;;;4942281;28;20149;-87
2021/10/02 03:21:52;;;;;;;12.57;8.45;;;11.10;99.90;;;;;;4942439;28;20050;-87
2021/10/02 03:24:21;;;;;;;15.05;8.15;;;11.20;99.90;;;;;;4945250;28;20066;-87
2021/10/02 03:26:50;;;;;;;16.02;7.60;;;11.10;99.90;;;;;;4926026;28;20565;-88
2021/10/02 03:29:21;;;;;;;11.68;9.00;;;11.10;99.90;;;;;;4922637;28;20058;-88
2021/10/02 03:31:49;;;;;;;9.98;8.93;;;11.20;99.90;;;;;;4943551;28;20058;-88
2021/10/02 03:34:16;;;;;;;23.10;8.52;;;11.10;99.90;;;;;;4943581;28;20136;-87
2021/10/02 03:36:44;;;;;;;13.35;9.75;;;11.10;99.90;;;;;;4943870;28;20078;-87
2021/10/02 03:39:12;;;;;;;13.07;9.10;;;11.10;99.90;;;;;;4925425;28;20051;-88
2021/10/02 03:41:39;;;;;;;12.07;8.40;;;11.10;99.90;;;;;;4941635;28;20126;-88
2021/10/02 03:44:06;;;;;;;10.73;7.65;;;11.10;99.90;;;;;;4943947;28;20050;-88
2021/10/02 03:46:33;;;;;;;12.45;7.57;;;11.10;99.90;;;;;;4943372;28;20051;-88
2021/10/02 03:49:04;;;;;;;10.45;9.25;;;11.10;99.90;;;;;;4941969;28;20516;-87
2021/10/02 03:51:31;;;;;;;11.18;9.02;;;11.00;99.90;;;;;;4942670;28;20047;-87
2021/10/02 03:53:57;;;;;;;22.88;11.80;;;11.00;99.90;;;;;;4943616;28;20114;-87
2021/10/02 03:56:29;;;;;;;12.75;9.55;;;11.00;99.90;;;;;;4944226;28;20601;-86
2021/10/02 03:58:56;;;;;;;12.68;9.07;;;11.00;99.90;;;;;;4941967;28;20059;-88
2021/10/02 04:01:23;;;;;;;15.10;9.05;;;11.00;99.90;;;;;;4941544;28;20062;-87
2021/10/02 04:03:51;;;;;;;17.02;9.95;;;11.00;99.90;;;;;;4941957;28;20172;-88
2021/10/02 04:06:17;;;;;;;16.85;10.93;;;11.00;99.90;;;;;;4941937;28;20144;-88
2021/10/02 04:08:44;;;;;;;16.33;10.63;;;11.00;99.90;;;;;;4942519;28;20050;-88
2021/10/02 04:11:11;;;;;;;14.38;11.52;;;11.00;99.90;;;;;;4938637;28;20050;-87
2021/10/02 04:13:39;;;;;;;14.90;9.95;;;11.00;99.90;;;;;;4941957;28;20047;-88
2021/10/02 04:16:05;;;;;;;11.55;10.25;;;11.00;99.90;;;;;;4942646;28;20055;-87
2021/10/02 04:18:33;;;;;;;11.20;10.10;;;11.00;99.90;;;;;;4944196;28;20057;-87
2021/10/02 04:21:00;;;;;;;13.32;9.75;;;11.00;99.90;;;;;;4943147;28;20788;-88
2021/10/02 04:23:30;;;;;;;12.52;9.75;;;11.00;99.90;;;;;;4923851;28;20047;-88
2021/10/02 04:25:57;;;;;;;15.15;9.40;;;11.00;99.90;;;;;;4944290;28;20051;-88
2021/10/02 04:28:25;;;;;;;19.17;10.02;;;11.00;99.90;;;;;;4942346;28;20444;-88
2021/10/02 04:30:52;;;;;;;20.52;12.10;;;11.00;99.90;;;;;;4943927;28;20125;-88
2021/10/02 04:33:21;;;;;;;16.27;10.02;;;11.00;99.90;;;;;;4940432;28;20046;-88
2021/10/02 04:35:48;;;;;;;17.48;10.13;;;11.00;99.90;;;;;;4922812;28;20059;-87
2021/10/02 04:38:15;;;;;;;16.30;11.07;;;10.90;99.90;;;;;;4936865;28;20074;-88
2021/10/02 04:40:42;;;;;;;13.25;10.43;;;10.90;99.90;;;;;;4941264;28;20082;-87
2021/10/02 04:43:11;;;;;;;13.65;9.13;;;11.00;99.90;;;;;;4922495;28;20070;-88
2021/10/02 04:45:38;;;;;;;12.77;8.43;;;11.00;99.90;;;;;;4942099;28;20121;-88
2021/10/02 04:48:05;;;;;;;13.77;9.18;;;11.00;99.90;;;;;;4925780;28;20144;-87
2021/10/02 04:50:32;;;;;;;11.18;9.43;;;10.90;99.90;;;;;;4941225;28;21050;-87
2021/10/02 04:53:00;;;;;;;12.80;10.05;;;10.90;99.90;;;;;;4938578;28;20047;-86
2021/10/02 04:55:27;;;;;;;10.57;9.07;;;10.90;99.90;;;;;;4923177;28;20074;-87
2021/10/02 04:57:53;;;;;;;17.80;10.80;;;10.90;99.90;;;;;;4940444;28;20138;-87
2021/10/02 05:00:20;;;;;;;16.17;9.15;;;10.90;99.90;;;;;;4941073;28;20051;-88
2021/10/02 05:02:47;;;;;;;15.70;8.57;;;10.90;99.90;;;;;;4941792;28;20109;-87
2021/10/02 05:05:14;;;;;;;10.95;9.60;;;10.90;99.90;;;;;;4923217;28;20058;-86
2021/10/02 05:07:41;;;;;;;16.33;9.43;;;10.90;99.90;;;;;;4923556;28;20108;-87
2021/10/02 05:10:09;;;;;;;17.33;10.82;;;11.00;99.90;;;;;;4942667;28;20109;-86
2021/10/02 05:12:37;;;;;;;10.45;9.40;;;10.90;99.90;;;;;;4941100;28;20117;-86
2021/10/02 05:15:05;;;;;;;14.07;9.60;;;10.90;99.90;;;;;;4922940;28;20054;-87
2021/10/02 05:17:32;;;;;;;24.70;13.02;;;10.90;99.90;;;;;;4939974;28;20054;-86
2021/10/02 05:19:59;;;;;;;12.90;9.18;;;11.00;99.90;;;;;;4939533;28;20051;-85
2021/10/02 05:22:26;;;;;;;14.38;9.95;;;11.00;99.90;;;;;;4923143;28;20058;-86
2021/10/02 05:24:52;;;;;;;10.13;9.07;;;11.00;99.90;;;;;;4942293;28;20066;-86
2021/10/02 05:27:19;;;;;;;11.85;9.70;;;11.00;99.90;;;;;;4935459;28;20109;-87
2021/10/02 05:29:48;;;;;;;12.90;9.85;;;11.00;99.90;;;;;;4937886;28;20106;-87
2021/10/02 05:32:15;;;;;;;16.20;9.73;;;11.00;99.90;;;;;;4938994;28;20488;-87
2021/10/02 05:34:42;;;;;;;10.65;9.05;;;11.00;99.90;;;;;;4940648;28;20110;-87
2021/10/02 05:37:09;;;;;;;14.75;10.55;;;11.10;99.90;;;;;;4936631;28;20121;-87
2021/10/02 05:39:37;;;;;;;13.52;9.75;;;11.10;99.90;;;;;;4921097;28;20038;-87
2021/10/02 05:42:04;;;;;;;9.98;8.98;;;11.10;99.90;;;;;;4940004;28;20051;-87
2021/10/02 05:44:33;;;;;;;13.52;11.63;;;11.10;99.90;;;;;;4941985;28;20613;-87
2021/10/02 05:47:00;;;;;;;15.63;11.13;;;11.10;99.90;;;;;;4938630;28;20062;-87
2021/10/02 05:49:27;;;;;;;14.18;9.15;;;11.20;99.90;;;;;;4942662;28;20038;-87
2021/10/02 05:51:54;;;;;;;21.65;11.38;;;11.20;99.90;;;;;;4940539;28;20074;-88
2021/10/02 05:54:21;;;;;;;17.95;11.65;;;11.30;99.90;;;;;;4939065;28;20058;-87
2021/10/02 05:56:48;;;;;;;17.17;10.82;;;11.30;99.90;;;;;;4923997;28;20100;-87
2021/10/02 05:59:15;;;;;;;12.15;10.70;;;11.40;99.90;;;;;;4939113;28;20113;-87
2021/10/02 06:01:42;;;;;;;16.05;11.52;;;11.40;99.90;;;;;;4922187;28;20039;-86
2021/10/02 06:04:09;;;;;;;13.18;11.50;;;11.40;99.90;;;;;;4943699;28;20051;-87
2021/10/02 06:06:36;;;;;;;20.95;11.82;;;11.50;99.90;;;;;;4939568;28;20051;-87
2021/10/02 06:09:03;;;;;;;14.27;12.38;;;11.50;99.90;;;;;;4922925;28;20047;-87
2021/10/02 06:11:30;;;;;;;13.23;11.35;;;11.50;99.90;;;;;;4940185;28;20062;-87
2021/10/02 06:13:58;;;;;;;15.25;11.98;;;11.60;99.90;;;;;;4938919;28;20520;-87
2021/10/02 06:16:31;;;;;;;17.95;12.43;;;11.60;99.90;;;;;;4938547;28;20165;-87
2021/10/02 06:18:58;;;;;;;14.93;10.82;;;11.60;99.90;;;;;;4936430;28;20058;-87
2021/10/02 06:21:24;;;;;;;12.20;10.95;;;11.70;99.90;;;;;;4938122;28;20166;-87
2021/10/02 06:23:52;;;;;;;11.85;10.43;;;11.80;99.90;;;;;;4937222;28;20059;-87
2021/10/02 06:26:19;;;;;;;16.70;11.15;;;11.80;99.90;;;;;;4922479;28;20047;-87
2021/10/02 06:28:45;;;;;;;10.60;9.32;;;11.90;99.90;;;;;;4943615;28;20685;-87
2021/10/02 06:31:12;;;;;;;11.65;10.20;;;11.90;99.90;;;;;;4941065;28;20043;-87
2021/10/02 06:33:39;;;;;;;11.27;9.80;;;12.00;99.90;;;;;;4944292;28;20074;-86
2021/10/02 06:36:06;;;;;;;12.93;9.57;;;12.10;99.90;;;;;;4927437;28;20047;-87
2021/10/02 06:38:33;;;;;;;14.60;12.27;;;12.10;99.90;;;;;;4942315;28;20059;-86
2021/10/02 06:41:01;;;;;;;18.35;9.52;;;12.20;99.90;;;;;;4942106;28;20060;-86
2021/10/02 06:43:27;;;;;;;10.80;9.77;;;12.20;99.90;;;;;;4945253;28;20580;-86
2021/10/02 06:45:54;;;;;;;16.23;11.75;;;12.30;99.90;;;;;;4926264;28;20121;-86
2021/10/02 06:48:21;;;;;;;12.57;8.82;;;12.30;99.90;;;;;;4924708;28;20061;-86
2021/10/02 06:50:48;;;;;;;14.57;11.40;;;12.20;99.90;;;;;;4942502;28;20047;-86
2021/10/02 06:53:15;;;;;;;9.82;8.23;;;12.30;99.90;;;;;;4923355;28;20105;-86
2021/10/02 06:55:43;;;;;;;12.27;8.15;;;12.30;99.90;;;;;;4925434;28;20043;-86
2021/10/02 06:58:10;;;;;;;10.38;8.82;;;12.30;99.90;;;;;;4942528;28;20045;-86
2021/10/02 07:00:38;;;;;;;13.27;9.05;;;12.40;99.90;;;;;;4926128;28;20078;-86
2021/10/02 07:03:06;;;;;;;10.13;8.70;;;12.40;99.90;;;;;;4923469;28;20043;-87
2021/10/02 07:05:33;;;;;;;9.27;8.25;;;12.40;99.90;;;;;;4943589;28;20055;-87
2021/10/02 07:08:00;;;;;;;12.65;9.40;;;12.50;99.90;;;;;;4927930;28;20495;-86
2021/10/02 07:10:29;;;;;;;8.80;7.50;;;12.50;99.90;;;;;;4942006;28;20054;-87
2021/10/02 07:12:56;;;;;;;9.68;8.35;;;12.50;99.90;;;;;;4942221;28;20051;-86
2021/10/02 07:15:23;;;;;;;13.32;8.45;;;12.60;99.90;;;;;;4925023;28;20063;-87
2021/10/02 07:17:50;;;;;;;11.45;8.60;;;12.60;99.90;;;;;;4925935;28;20074;-87
2021/10/02 07:20:17;;;;;;;10.82;8.20;;;12.70;99.90;;;;;;4944460;28;20085;-86
2021/10/02 07:22:44;;;;;;;8.27;7.47;;;12.80;99.90;;;;;;4943697;28;20062;-85
2021/10/02 07:25:14;;;;;;;9.98;9.00;;;12.80;99.90;;;;;;4924803;28;20078;-87
2021/10/02 07:27:44;;;;;;;9.40;7.88;;;12.80;99.90;;;;;;4941799;28;20129;-86
2021/10/02 07:30:12;;;;;;;11.25;7.10;;;12.90;99.90;;;;;;4944028;28;20901;-86
2021/10/02 07:32:40;;;;;;;8.77;7.35;;;12.90;99.90;;;;;;4943091;28;20125;-86
2021/10/02 07:35:10;;;;;;;12.32;7.50;;;12.90;99.90;;;;;;4940017;28;20077;-87
2021/10/02 07:37:37;;;;;;;13.88;7.05;;;13.00;99.90;;;;;;4941576;28;20520;-87
2021/10/02 07:40:06;;;;;;;7.72;6.13;;;13.00;99.90;;;;;;4941612;28;20105;-87
2021/10/02 07:42:35;;;;;;;8.82;5.88;;;13.00;99.90;;;;;;4944433;28;20508;-87
2021/10/02 07:45:06;;;;;;;8.63;7.43;;;13.00;99.90;;;;;;4940127;28;20055;-88
2021/10/02 07:47:39;;;;;;;6.57;5.82;;;13.10;99.90;;;;;;4942355;28;20083;-87
2021/10/02 07:50:12;;;;;;;8.23;6.40;;;13.20;99.90;;;;;;4927515;28;20085;-88
2021/10/02 07:52:40;;;;;;;8.65;7.10;;;13.20;99.90;;;;;;4943167;28;20051;-88
2021/10/02 07:55:09;;;;;;;10.27;5.88;;;13.30;99.90;;;;;;4924320;28;20078;-87
2021/10/02 07:57:42;;;;;;;8.67;6.63;;;13.30;99.90;;;;;;4943064;28;20570;-86
2021/10/02 08:00:11;;;;;;;7.10;6.13;;;13.30;99.90;;;;;;4940065;28;20063;-87
2021/10/02 08:02:47;;;;;;;10.10;6.53;;;13.30;99.90;;;;;;4944362;28;20157;-87
2021/10/02 08:05:16;;;;;;;7.05;6.28;;;13.30;99.90;;;;;;4923087;28;20047;-87
2021/10/02 08:07:46;;;;;;;8.77;6.47;;;13.30;99.90;;;;;;4940418;28;20068;-88
2021/10/02 08:10:15;;;;;;;8.73;7.25;;;13.30;99.90;;;;;;4929188;28;20061;-87
2021/10/02 08:12:42;;;;;;;6.82;5.60;;;13.20;99.90;;;;;;4943205;28;20730;-87
2021/10/02 08:15:10;;;;;;;8.50;7.43;;;13.30;99.90;;;;;;4939141;28;20047;-87
2021/10/02 08:17:40;;;;;;;10.15;6.18;;;13.30;99.90;;;;;;4940138;28;20059;-88
2021/10/02 08:20:10;;;;;;;8.20;5.97;;;13.50;99.90;;;;;;4939522;28;20055;-87
2021/10/02 08:22:39;;;;;;;13.00;7.82;;;13.60;99.90;;;;;;4939969;28;20051;-88
2021/10/02 08:25:09;;;;;;;7.15;6.50;;;13.70;99.90;;;;;;4938075;28;22209;-88
2021/10/02 08:27:36;;;;;;;7.10;6.27;;;13.80;99.90;;;;;;4938503;28;20071;-86
2021/10/02 08:30:06;;;;;;;6.88;5.57;;;13.80;99.90;;;;;;4922950;28;20308;-89
2021/10/02 08:32:34;;;;;;;11.60;6.82;;;13.80;99.90;;;;;;4939626;28;20055;-87
2021/10/02 08:35:06;;;;;;;7.47;6.00;;;13.80;99.90;;;;;;4924516;28;20066;-87
2021/10/02 08:37:34;;;;;;;14.93;6.38;;;13.90;99.90;;;;;;4940422;28;20051;-87
2021/10/02 08:40:03;;;;;;;11.65;5.45;;;13.90;99.90;;;;;;4941873;28;20058;-87
2021/10/02 08:42:30;;;;;;;7.53;4.80;;;13.90;99.90;;;;;;4922749;28;20059;-87
2021/10/02 08:45:00;;;;;;;10.95;6.45;;;13.90;99.90;;;;;;4938861;28;20058;-87
2021/10/02 08:47:28;;;;;;;8.50;4.60;;;14.00;99.90;;;;;;4939876;28;20047;-87
2021/10/02 08:49:57;;;;;;;7.18;5.63;;;14.10;99.90;;;;;;4940386;28;20059;-86
2021/10/02 08:52:24;;;;;;;6.78;5.32;;;14.20;99.90;;;;;;4921278;28;20114;-88
2021/10/02 08:54:54;;;;;;;7.18;5.05;;;14.10;99.90;;;;;;4941832;28;20109;-87
2021/10/02 08:57:26;;;;;;;5.78;4.85;;;14.20;99.90;;;;;;4919006;28;20906;-86
2021/10/02 08:59:55;;;;;;;5.97;5.35;;;14.20;99.90;;;;;;4922622;28;20054;-86
2021/10/02 09:02:24;;;;;;;7.78;5.38;;;14.20;99.90;;;;;;4941670;28;20066;-86
2021/10/02 09:04:53;;;;;;;4.60;4.20;;;14.20;99.90;;;;;;4942003;28;20709;-87
2021/10/02 09:07:23;;;;;;;4.85;4.25;;;14.20;99.90;;;;;;4939205;28;20065;-85
2021/10/02 09:09:54;;;;;;;5.43;3.47;;;14.20;99.90;;;;;;4923825;28;20051;-86
2021/10/02 09:12:23;;;;;;;5.55;4.47;;;14.20;99.90;;;;;;4941683;28;20113;-87
2021/10/02 09:14:52;;;;;;;5.05;3.95;;;14.20;99.90;;;;;;4941749;28;20063;-87
2021/10/02 09:17:20;;;;;;;20.15;6.57;;;14.40;99.90;;;;;;4940798;28;20097;-86
2021/10/02 09:19:48;;;;;;;5.18;3.92;;;14.40;99.90;;;;;;4941839;28;20058;-86
2021/10/02 09:22:18;;;;;;;7.50;4.47;;;14.30;99.90;;;;;;4941481;28;20054;-87
2021/10/02 09:24:46;;;;;;;5.60;5.07;;;14.30;99.90;;;;;;4940419;28;20058;-86
2021/10/02 09:27:26;;;;;;;5.78;3.60;;;14.40;99.90;;;;;;4940245;28;20447;-87
2021/10/02 09:29:57;;;;;;;5.28;4.45;;;14.60;99.90;;;;;;4940360;28;20050;-85
2021/10/02 09:32:36;;;;;;;4.95;3.15;;;14.50;99.90;;;;;;4942929;28;20066;-87
2021/10/02 09:35:08;;;;;;;5.97;4.00;;;14.50;99.90;;;;;;4937208;28;20440;-85
2021/10/02 09:37:37;;;;;;;4.53;3.60;;;14.50;99.90;;;;;;4941892;28;20065;-87
2021/10/02 09:40:11;;;;;;;3.83;2.77;;;14.40;99.90;;;;;;4938186;28;20106;-85
2021/10/02 09:42:43;;;;;;;6.50;3.50;;;14.40;99.90;;;;;;4907416;28;20566;-85
2021/10/02 09:45:13;;;;;;;3.80;3.20;;;14.30;99.90;;;;;;4920118;28;20640;-86
2021/10/02 09:47:41;;;;;;;5.55;4.13;;;14.30;99.90;;;;;;4942242;28;20154;-85
2021/10/02 09:50:18;;;;;;;5.00;3.22;;;14.30;99.90;;;;;;4937389;28;20050;-87
2021/10/02 09:52:56;;;;;;;4.57;3.85;;;14.20;99.90;;;;;;4943094;28;20064;-86
2021/10/02 09:55:26;;;;;;;3.72;3.28;;;14.30;99.90;;;;;;4915917;28;20082;-86
2021/10/02 09:57:56;;;;;;;4.82;3.17;;;14.40;99.90;;;;;;4923485;28;20047;-86
2021/10/02 10:00:27;;;;;;;4.13;3.05;;;14.50;99.90;;;;;;4940966;28;20123;-86
2021/10/02 10:02:56;;;;;;;4.95;3.15;;;14.60;99.90;;;;;;4922190;28;21925;-86
2021/10/02 10:05:31;;;;;;;3.83;3.53;;;14.60;99.90;;;;;;4939345;28;20861;-86
2021/10/02 10:08:00;;;;;;;3.80;3.45;;;14.70;99.90;;;;;;4923422;28;20065;-85
2021/10/02 10:10:29;;;;;;;3.80;3.50;;;14.70;99.90;;;;;;4939890;28;20429;-86
2021/10/02 10:12:56;;;;;;;6.57;2.83;;;14.70;99.90;;;;;;4921523;28;20512;-86
2021/10/02 10:15:45;;;;;;;4.90;4.32;;;14.60;99.90;;;;;;4922640;28;20058;-85
2021/10/02 10:18:16;;;;;;;6.28;3.97;;;14.60;99.90;;;;;;4922289;28;20069;-85
2021/10/02 10:20:49;;;;;;;5.28;3.85;;;14.50;99.90;;;;;;4941149;28;20057;-85
2021/10/02 10:23:45;;;;;;;5.30;3.65;;;14.40;99.90;;;;;;4920877;28;20057;-86
2021/10/02 10:26:17;;;;;;;4.78;4.32;;;14.30;99.90;;;;;;4940018;28;20051;-85
2021/10/02 10:28:46;;;;;;;5.80;3.83;;;14.20;99.90;;;;;;4922137;28;20154;-86
2021/10/02 10:31:16;;;;;;;5.35;4.70;;;14.20;99.90;;;;;;4937582;28;20058;-87
2021/10/02 10:33:47;;;;;;;6.38;5.78;;;14.20;99.90;;;;;;4926498;28;20047;-86
2021/10/02 10:36:15;;;;;;;14.85;6.63;;;14.20;99.90;;;;;;4940252;28;20487;-88
2021/10/02 10:38:43;;;;;;;8.23;5.32;;;14.20;99.90;;;;;;4924250;28;20643;-88
2021/10/02 10:41:14;;;;;;;8.10;7.05;;;14.20;99.90;;;;;;4940030;28;20051;-87
2021/10/02 10:43:41;;;;;;;9.90;6.57;;;14.30;99.90;;;;;;4920896;28;20054;-86
2021/10/02 10:46:11;;;;;;;7.32;6.25;;;14.30;99.90;;;;;;4938823;28;20058;-85
2021/10/02 10:48:39;;;;;;;8.23;6.82;;;14.30;99.90;;;;;;4922386;28;20062;-85
2021/10/02 10:51:12;;;;;;;8.00;7.18;;;14.30;99.90;;;;;;4936494;28;20562;-87
2021/10/02 10:53:42;;;;;;;8.65;7.63;;;14.20;99.90;;;;;;4940807;28;20142;-84
2021/10/02 10:56:12;;;;;;;12.45;9.30;;;14.20;99.90;;;;;;4939408;28;20055;-85
2021/10/02 10:58:39;;;;;;;15.90;9.80;;;14.20;99.90;;;;;;4922435;28;20057;-87
2021/10/02 11:01:09;;;;;;;12.63;9.35;;;14.20;99.90;;;;;;4922113;28;20138;-87
2021/10/02 11:03:39;;;;;;;13.75;10.07;;;14.20;99.90;;;;;;4938573;28;20045;-86
2021/10/02 11:06:12;;;;;;;13.23;10.52;;;14.20;99.90;;;;;;4940095;28;20132;-86
2021/10/02 11:08:48;;;;;;;17.73;11.43;;;14.00;99.90;;;;;;4920849;28;20039;-86
2021/10/02 11:11:16;;;;;;;15.05;11.35;;;14.00;99.90;;;;;;4917844;28;20054;-86
2021/10/02 11:13:46;;;;;;;16.35;10.48;;;14.00;99.90;;;;;;4919511;28;20416;-87
2021/10/02 11:16:36;;;;;;;14.13;12.10;;;14.10;99.90;;;;;;4941074;28;20065;-85
2021/10/02 11:19:31;;;;;;;14.15;11.73;;;14.20;99.90;;;;;;4933627;28;20042;-88
2021/10/02 11:22:57;;;;;;;14.32;12.15;;;14.00;99.90;;;;;;4928056;28;20145;-84
2021/10/02 11:25:27;;;;;;;13.32;11.90;;;14.10;99.90;;;;;;4904735;28;20058;-84
2021/10/02 11:28:16;;;;;;;;;;;14.20;99.90;;;;;;4944230;28;20306;-84
2021/10/02 11:30:49;;;;;;;17.92;12.10;;;14.30;99.90;;;;;;4926363;28;19988;-85
2021/10/02 11:33:41;;;;;;;13.52;12.13;;;14.40;99.90;;;;;;4926682;28;20050;-86
2021/10/02 11:36:30;;;;;;;16.80;12.77;;;14.30;99.90;;;;;;4924568;28;20055;-85
2021/10/02 11:39:11;;;;;;;16.00;12.82;;;14.40;99.90;;;;;;4944712;28;20050;-84
2021/10/02 11:41:40;;;;;;;13.00;11.48;;;14.40;99.90;;;;;;4923363;28;20046;-85
2021/10/02 11:44:07;;;;;;;16.55;13.85;;;14.50;99.90;;;;;;4944852;28;20063;-86
2021/10/02 11:46:34;;;;;;;18.08;15.95;;;14.50;99.90;;;;;;4924935;28;20765;-85
2021/10/02 11:49:17;;;;;;;15.68;12.95;;;14.50;99.90;;;;;;4941776;28;20042;-84
2021/10/02 11:52:11;;;;;;;13.50;11.57;;;14.50;99.90;;;;;;4943810;28;20504;-86
2021/10/02 11:54:40;;;;;;;16.10;12.50;;;14.50;99.90;;;;;;4938432;28;20113;-85
2021/10/02 11:57:14;;;;;;;19.58;13.38;;;14.70;99.90;;;;;;4922869;28;20062;-85
2021/10/02 11:59:46;;;;;;;14.77;11.60;;;14.80;99.90;;;;;;4939725;28;20587;-85
2021/10/02 12:02:14;;;;;;;13.15;11.00;;;14.80;99.90;;;;;;4941326;28;20062;-85
2021/10/02 12:04:41;;;;;;;14.15;12.55;;;14.60;99.90;;;;;;4939068;28;20046;-85
2021/10/02 12:07:09;;;;;;;13.50;11.48;;;14.50;99.90;;;;;;4923265;28;20054;-85
2021/10/02 12:09:36;;;;;;;14.70;12.90;;;14.30;99.90;;;;;;4939713;28;20047;-85
2021/10/02 12:12:03;;;;;;;14.60;11.73;;;14.10;99.90;;;;;;4925536;28;20043;-86
2021/10/02 12:14:30;;;;;;;15.38;12.48;;;14.00;99.90;;;;;;4923878;28;20109;-86
2021/10/02 12:17:00;;;;;;;16.17;13.75;;;14.00;99.90;;;;;;4941771;28;20090;-86
2021/10/02 12:19:29;;;;;;;16.67;13.60;;;14.00;99.90;;;;;;4923815;28;20050;-86
2021/10/02 12:22:05;;;;;;;15.65;13.15;;;14.00;99.90;;;;;;4921473;28;20047;-85
2021/10/02 12:24:35;;;;;;;15.50;12.88;;;13.90;99.90;;;;;;4923273;28;20078;-85
2021/10/02 12:27:10;;;;;;;21.35;12.82;;;13.80;99.90;;;;;;4921417;28;20488;-86
2021/10/02 12:29:38;;;;;;;13.73;12.10;;;13.70;99.90;;;;;;4941197;28;20760;-85
2021/10/02 12:32:10;;;;;;;15.40;13.38;;;13.80;99.90;;;;;;4922479;28;20055;-85
2021/10/02 12:34:52;;;;;;;15.63;13.25;;;13.80;99.90;;;;;;4917641;28;20082;-86
2021/10/02 12:37:21;;;;;;;16.42;12.95;;;13.80;99.90;;;;;;4908565;28;20055;-86
2021/10/02 12:39:55;;;;;;;16.02;12.10;;;13.80;99.90;;;;;;4942455;28;20197;-85
2021/10/02 12:42:33;;;;;;;19.83;14.18;;;13.90;99.90;;;;;;4940057;28;20078;-87
2021/10/02 12:45:02;;;;;;;15.50;13.82;;;13.90;99.90;;;;;;4899014;28;20145;-88
2021/10/02 12:47:29;;;;;;;17.13;12.95;;;14.00;99.90;;;;;;4912425;28;20058;-85
2021/10/02 12:50:01;;;;;;;16.92;13.98;;;14.00;99.90;;;;;;4913502;28;20046;-86
2021/10/02 12:52:29;;;;;;;20.52;14.50;;;14.20;99.90;;;;;;4896144;28;20042;-86
2021/10/02 12:54:58;;;;;;;16.70;15.00;;;14.40;99.90;;;;;;4914102;28;20081;-88
2021/10/02 12:57:37;;;;;;;25.65;15.68;;;14.50;99.90;;;;;;4922706;28;20051;-86
2021/10/02 13:00:09;;;;;;;21.05;15.05;;;14.60;99.90;;;;;;4903888;28;20767;-88
2021/10/02 13:02:45;;;;;;;17.90;15.52;;;14.70;99.90;;;;;;4904905;28;20039;-86
2021/10/02 13:05:14;;;;;;;20.85;15.05;;;14.90;99.90;;;;;;4920157;28;20523;-86
2021/10/02 13:07:50;;;;;;;26.13;17.50;;;14.90;99.90;;;;;;4916631;28;20105;-87
2021/10/02 13:10:26;;;;;;;19.98;15.98;;;14.90;99.90;;;;;;4924065;28;20078;-86
2021/10/02 13:12:59;;;;;;;23.10;16.23;;;14.90;99.90;;;;;;4924441;28;20051;-86
2021/10/02 13:15:49;;;;;;;18.85;16.45;;;14.80;99.90;;;;;;4913469;28;20130;-86
2021/10/02 13:18:19;;;;;;;;;;;14.70;99.90;;;;;;4920710;28;20146;-85
2021/10/02 13:20:46;;;;;;;25.50;16.48;;;14.70;99.90;;;;;;4914284;28;20426;-86
2021/10/02 13:23:31;;;;;;;19.40;16.63;;;14.90;99.90;;;;;;4912846;28;20097;-87
2021/10/02 13:26:00;;;;;;;29.38;18.17;;;15.10;99.90;;;;;;4895105;28;20555;-88
2021/10/02 13:28:40;;;;;;;18.92;16.27;;;15.20;99.90;;;;;;4913537;28;20149;-87
2021/10/02 13:31:20;;;;;;;17.63;14.95;;;15.30;99.90;;;;;;4895862;28;20049;-87
2021/10/02 13:33:53;;;;;;;21.40;14.73;;;15.30;99.90;;;;;;4921454;28;20105;-88
2021/10/02 13:36:30;;;;;;;16.90;13.90;;;15.00;99.90;;;;;;4913840;28;20649;-85
2021/10/02 13:39:12;;;;;;;20.40;16.27;;;14.90;99.90;;;;;;4903848;28;20085;-85
2021/10/02 13:41:40;;;;;;;19.10;13.65;;;14.70;99.90;;;;;;4919844;28;20066;-87
2021/10/02 13:44:07;;;;;;;19.27;15.25;;;14.80;99.90;;;;;;4899474;28;20082;-87
2021/10/02 13:46:43;;;;;;;18.10;15.45;;;14.70;99.90;;;;;;4920439;28;20121;-87
2021/10/02 13:49:13;;;;;;;23.35;14.88;;;14.60;99.90;;;;;;4902763;28;20042;-88
2021/10/02 13:51:41;;;;;;;16.33;13.87;;;14.40;99.90;;;;;;4905270;28;20130;-86
2021/10/02 13:54:09;;;;;;;18.23;16.17;;;14.40;99.90;;;;;;4904006;28;20047;-87